sensor_id;sensor_type;location;lat;lon;timestamp;P1;P2;P0
68841;PMS5003;55849;48.482;2.332;2023-03-01T00:01:47;9.00;5.50;4.00
68841;PMS5003;55849;48.482;2.332;2023-03-01T00:04:49;6.00;6.00;3.75
68841;PMS5003;55849;48.482;2.332;2023-03-01T00:07:53;3.25;3.25;3.25
68841;PMS5003;55849;48.482;2.332;2023-03-01T00:11:01;5.00;5.00;4.00
68841;PMS5003;55849;48.482;2.332;2023-03-01T00:14:04;8.00;8.00;4.50
68841;PMS5003;55849;48.482;2.332;2023-03-01T00:17:06;10.25;6.75;4.00
68841;PMS5003;55849;48.482;2.332;2023-03-01T00:20:08;9.75;9.75;7.00
68841;PMS5003;55849;48.482;2.332;2023-03-01T00:23:12;8.25;6.50;4.50
68841;PMS5003;55849;48.482;2.332;2023-03-01T00:26:14;7.75;7.00;5.00
68841;PMS5003;55849;48.482;2.332;2023-03-01T00:29:17;9.00;8.00;6.00
68841;PMS5003;55849;48.482;2.332;2023-03-01T00:32:18;9.00;9.00;5.00
68841;PMS5003;55849;48.482;2.332;2023-03-01T00:35:20;9.00;9.00;6.00
68841;PMS5003;55849;48.482;2.332;2023-03-01T00:38:24;9.75;7.00;5.50
68841;PMS5003;55849;48.482;2.332;2023-03-01T00:41:26;10.00;7.50;7.00
68841;PMS5003;55849;48.482;2.332;2023-03-01T00:44:27;7.50;6.25;4.00
68841;PMS5003;55849;48.482;2.332;2023-03-01T00:47:29;6.50;6.50;3.50
68841;PMS5003;55849;48.482;2.332;2023-03-01T00:50:31;12.25;6.25;3.50
68841;PMS5003;55849;48.482;2.332;2023-03-01T00:53:34;12.50;8.00;4.00
68841;PMS5003;55849;48.482;2.332;2023-03-01T00:56:36;9.50;7.50;6.50
68841;PMS5003;55849;48.482;2.332;2023-03-01T00:59:37;8.75;6.75;6.00
68841;PMS5003;55849;48.482;2.332;2023-03-01T01:02:39;11.50;7.00;6.00
68841;PMS5003;55849;48.482;2.332;2023-03-01T01:05:41;9.50;6.25;4.00
68841;PMS5003;55849;48.482;2.332;2023-03-01T01:08:44;8.75;6.00;3.00
68841;PMS5003;55849;48.482;2.332;2023-03-01T01:11:46;6.00;4.00;0.75
68841;PMS5003;55849;48.482;2.332;2023-03-01T01:14:49;12.50;6.00;4.00
68841;PMS5003;55849;48.482;2.332;2023-03-01T01:17:51;10.00;7.00;6.00
68841;PMS5003;55849;48.482;2.332;2023-03-01T01:20:53;6.00;6.00;3.50
68841;PMS5003;55849;48.482;2.332;2023-03-01T01:23:56;7.50;6.75;5.00
68841;PMS5003;55849;48.482;2.332;2023-03-01T01:26:57;11.50;9.00;5.50
68841;PMS5003;55849;48.482;2.332;2023-03-01T01:29:59;9.00;6.00;3.25
68841;PMS5003;55849;48.482;2.332;2023-03-01T01:33:01;9.25;6.00;3.75
68841;PMS5003;55849;48.482;2.332;2023-03-01T01:36:02;4.00;4.00;1.50
68841;PMS5003;55849;48.482;2.332;2023-03-01T01:39:06;8.00;6.50;4.00
68841;PMS5003;55849;48.482;2.332;2023-03-01T01:42:12;6.50;6.50;4.00
68841;PMS5003;55849;48.482;2.332;2023-03-01T01:45:29;11.00;7.50;5.50
68841;PMS5003;55849;48.482;2.332;2023-03-01T01:48:34;8.50;3.75;3.00
68841;PMS5003;55849;48.482;2.332;2023-03-01T01:51:42;11.75;8.75;6.00
68841;PMS5003;55849;48.482;2.332;2023-03-01T01:54:50;11.00;6.00;4.00
68841;PMS5003;55849;48.482;2.332;2023-03-01T01:57:55;6.00;6.00;1.00
68841;PMS5003;55849;48.482;2.332;2023-03-01T02:00:59;8.25;6.25;3.75
68841;PMS5003;55849;48.482;2.332;2023-03-01T02:04:03;10.50;7.00;4.00
68841;PMS5003;55849;48.482;2.332;2023-03-01T02:07:07;6.25;3.75;3.25
68841;PMS5003;55849;48.482;2.332;2023-03-01T02:10:16;8.50;6.00;3.25
68841;PMS5003;55849;48.482;2.332;2023-03-01T02:13:18;8.50;7.00;3.50
68841;PMS5003;55849;48.482;2.332;2023-03-01T02:16:19;9.75;6.75;4.00
68841;PMS5003;55849;48.482;2.332;2023-03-01T02:19:26;6.00;6.00;4.00
68841;PMS5003;55849;48.482;2.332;2023-03-01T02:22:40;8.00;5.75;3.75
68841;PMS5003;55849;48.482;2.332;2023-03-01T02:25:49;7.50;7.50;4.00
68841;PMS5003;55849;48.482;2.332;2023-03-01T02:28:56;9.50;7.00;4.00
68841;PMS5003;55849;48.482;2.332;2023-03-01T02:31:59;9.00;9.00;4.00
68841;PMS5003;55849;48.482;2.332;2023-03-01T02:35:03;6.25;6.25;3.50
68841;PMS5003;55849;48.482;2.332;2023-03-01T02:38:06;4.00;4.00;3.00
68841;PMS5003;55849;48.482;2.332;2023-03-01T02:41:09;8.25;6.00;3.00
68841;PMS5003;55849;48.482;2.332;2023-03-01T02:44:17;6.75;5.25;4.25
68841;PMS5003;55849;48.482;2.332;2023-03-01T02:47:18;7.75;6.75;3.00
68841;PMS5003;55849;48.482;2.332;2023-03-01T02:50:24;4.50;4.50;4.00
68841;PMS5003;55849;48.482;2.332;2023-03-01T02:53:41;7.00;4.50;3.75
68841;PMS5003;55849;48.482;2.332;2023-03-01T02:56:51;6.00;6.00;4.00
68841;PMS5003;55849;48.482;2.332;2023-03-01T02:59:55;9.00;4.00;3.00
68841;PMS5003;55849;48.482;2.332;2023-03-01T03:02:58;5.00;4.00;2.50
68841;PMS5003;55849;48.482;2.332;2023-03-01T03:06:00;11.50;9.00;4.00
68841;PMS5003;55849;48.482;2.332;2023-03-01T03:09:01;11.25;8.50;5.00
68841;PMS5003;55849;48.482;2.332;2023-03-01T03:12:03;10.25;6.00;4.00
68841;PMS5003;55849;48.482;2.332;2023-03-01T03:15:07;13.50;10.25;5.50
68841;PMS5003;55849;48.482;2.332;2023-03-01T03:18:13;6.00;4.50;4.00
68841;PMS5003;55849;48.482;2.332;2023-03-01T03:21:16;6.00;6.00;3.50
68841;PMS5003;55849;48.482;2.332;2023-03-01T03:24:18;6.75;6.00;3.00
68841;PMS5003;55849;48.482;2.332;2023-03-01T03:27:19;9.25;9.00;3.00
68841;PMS5003;55849;48.482;2.332;2023-03-01T03:30:23;10.25;7.00;4.00
68841;PMS5003;55849;48.482;2.332;2023-03-01T03:33:26;9.00;9.00;6.00
68841;PMS5003;55849;48.482;2.332;2023-03-01T03:36:27;11.50;9.25;6.75
68841;PMS5003;55849;48.482;2.332;2023-03-01T03:39:29;15.50;14.00;9.00
68841;PMS5003;55849;48.482;2.332;2023-03-01T03:42:34;23.00;12.00;6.00
68841;PMS5003;55849;48.482;2.332;2023-03-01T03:45:37;12.50;9.50;6.00
68841;PMS5003;55849;48.482;2.332;2023-03-01T03:48:40;11.50;9.25;8.50
68841;PMS5003;55849;48.482;2.332;2023-03-01T03:51:44;22.25;18.50;11.50
68841;PMS5003;55849;48.482;2.332;2023-03-01T03:54:47;12.00;11.00;7.50
68841;PMS5003;55849;48.482;2.332;2023-03-01T03:57:48;17.00;13.00;9.25
68841;PMS5003;55849;48.482;2.332;2023-03-01T04:00:53;10.50;7.50;5.50
68841;PMS5003;55849;48.482;2.332;2023-03-01T04:03:56;14.00;10.00;6.75
68841;PMS5003;55849;48.482;2.332;2023-03-01T04:07:02;16.50;13.00;9.25
68841;PMS5003;55849;48.482;2.332;2023-03-01T04:10:04;14.00;10.00;7.00
68841;PMS5003;55849;48.482;2.332;2023-03-01T04:13:09;12.50;10.00;6.00
68841;PMS5003;55849;48.482;2.332;2023-03-01T04:16:14;9.25;9.25;5.50
68841;PMS5003;55849;48.482;2.332;2023-03-01T04:19:15;7.00;7.00;5.00
68841;PMS5003;55849;48.482;2.332;2023-03-01T04:22:17;1.00;0.00;0.00
68841;PMS5003;55849;48.482;2.332;2023-03-01T04:25:19;15.00;9.00;6.75
68841;PMS5003;55849;48.482;2.332;2023-03-01T04:28:21;10.25;9.75;6.25
68841;PMS5003;55849;48.482;2.332;2023-03-01T04:31:25;17.00;11.75;6.75
68841;PMS5003;55849;48.482;2.332;2023-03-01T04:34:28;9.75;8.00;3.25
68841;PMS5003;55849;48.482;2.332;2023-03-01T04:37:29;10.00;10.00;6.50
68841;PMS5003;55849;48.482;2.332;2023-03-01T04:40:31;12.75;9.25;3.25
68841;PMS5003;55849;48.482;2.332;2023-03-01T04:43:34;7.75;7.00;4.00
68841;PMS5003;55849;48.482;2.332;2023-03-01T04:46:37;9.50;6.75;4.50
68841;PMS5003;55849;48.482;2.332;2023-03-01T04:49:39;13.00;9.00;6.00
68841;PMS5003;55849;48.482;2.332;2023-03-01T04:52:41;11.00;10.00;5.50
68841;PMS5003;55849;48.482;2.332;2023-03-01T04:55:42;8.50;8.00;3.75
68841;PMS5003;55849;48.482;2.332;2023-03-01T04:58:44;6.50;5.00;3.00
68841;PMS5003;55849;48.482;2.332;2023-03-01T05:01:48;8.50;6.50;4.50
68841;PMS5003;55849;48.482;2.332;2023-03-01T05:04:49;5.00;5.00;3.00
68841;PMS5003;55849;48.482;2.332;2023-03-01T05:07:52;12.50;9.75;6.00
68841;PMS5003;55849;48.482;2.332;2023-03-01T05:10:54;8.25;7.00;6.00
68841;PMS5003;55849;48.482;2.332;2023-03-01T05:13:56;12.25;9.75;5.50
68841;PMS5003;55849;48.482;2.332;2023-03-01T05:16:59;15.25;10.50;6.75
68841;PMS5003;55849;48.482;2.332;2023-03-01T05:20:04;13.00;9.75;4.00
68841;PMS5003;55849;48.482;2.332;2023-03-01T05:23:08;12.25;9.50;6.00
68841;PMS5003;55849;48.482;2.332;2023-03-01T05:26:10;10.50;9.00;6.00
68841;PMS5003;55849;48.482;2.332;2023-03-01T05:29:13;8.75;7.00;4.00
68841;PMS5003;55849;48.482;2.332;2023-03-01T05:32:16;8.50;8.00;5.00
68841;PMS5003;55849;48.482;2.332;2023-03-01T05:35:17;12.50;8.50;6.00
68841;PMS5003;55849;48.482;2.332;2023-03-01T05:38:19;10.25;6.75;4.50
68841;PMS5003;55849;48.482;2.332;2023-03-01T05:41:22;10.50;8.75;6.00
68841;PMS5003;55849;48.482;2.332;2023-03-01T05:44:24;7.50;7.50;6.00
68841;PMS5003;55849;48.482;2.332;2023-03-01T05:47:28;19.25;12.00;6.75
68841;PMS5003;55849;48.482;2.332;2023-03-01T05:50:32;8.00;8.00;4.00
68841;PMS5003;55849;48.482;2.332;2023-03-01T05:53:36;7.25;7.25;4.50
68841;PMS5003;55849;48.482;2.332;2023-03-01T05:56:37;12.00;8.50;5.50
68841;PMS5003;55849;48.482;2.332;2023-03-01T05:59:39;13.25;9.00;6.00
68841;PMS5003;55849;48.482;2.332;2023-03-01T06:02:42;12.50;9.00;6.25
68841;PMS5003;55849;48.482;2.332;2023-03-01T06:05:44;12.00;7.50;5.50
68841;PMS5003;55849;48.482;2.332;2023-03-01T06:08:46;9.25;8.50;6.50
68841;PMS5003;55849;48.482;2.332;2023-03-01T06:11:48;13.00;9.25;7.00
68841;PMS5003;55849;48.482;2.332;2023-03-01T06:14:49;9.25;7.25;3.00
68841;PMS5003;55849;48.482;2.332;2023-03-01T06:17:53;6.00;6.00;4.50
68841;PMS5003;55849;48.482;2.332;2023-03-01T06:20:57;10.00;10.00;8.50
68841;PMS5003;55849;48.482;2.332;2023-03-01T06:23:58;13.75;7.00;6.00
68841;PMS5003;55849;48.482;2.332;2023-03-01T06:27:01;14.50;9.25;5.50
68841;PMS5003;55849;48.482;2.332;2023-03-01T06:30:03;19.50;7.50;6.00
68841;PMS5003;55849;48.482;2.332;2023-03-01T06:33:06;9.00;4.50;3.00
68841;PMS5003;55849;48.482;2.332;2023-03-01T06:36:08;11.75;10.50;7.00
68841;PMS5003;55849;48.482;2.332;2023-03-01T06:39:10;13.00;9.25;6.75
68841;PMS5003;55849;48.482;2.332;2023-03-01T06:42:12;7.50;7.50;6.00
68841;PMS5003;55849;48.482;2.332;2023-03-01T06:45:13;10.25;7.25;5.50
68841;PMS5003;55849;48.482;2.332;2023-03-01T06:48:16;10.25;9.75;6.25
68841;PMS5003;55849;48.482;2.332;2023-03-01T06:51:18;17.00;12.50;6.75
68841;PMS5003;55849;48.482;2.332;2023-03-01T06:54:20;13.00;7.00;6.00
68841;PMS5003;55849;48.482;2.332;2023-03-01T06:57:22;13.75;10.50;6.00
68841;PMS5003;55849;48.482;2.332;2023-03-01T07:00:24;16.00;12.00;7.00
68841;PMS5003;55849;48.482;2.332;2023-03-01T07:03:27;8.50;8.50;5.50
68841;PMS5003;55849;48.482;2.332;2023-03-01T07:06:29;9.25;6.75;6.00
68841;PMS5003;55849;48.482;2.332;2023-03-01T07:09:30;12.25;9.25;4.00
68841;PMS5003;55849;48.482;2.332;2023-03-01T07:12:32;9.75;8.00;4.50
68841;PMS5003;55849;48.482;2.332;2023-03-01T07:15:34;13.75;11.50;6.25
68841;PMS5003;55849;48.482;2.332;2023-03-01T07:18:37;11.50;9.00;6.00
68841;PMS5003;55849;48.482;2.332;2023-03-01T07:21:38;12.50;12.00;6.00
68841;PMS5003;55849;48.482;2.332;2023-03-01T07:24:40;14.50;11.00;8.00
68841;PMS5003;55849;48.482;2.332;2023-03-01T07:27:42;16.00;14.50;9.75
68841;PMS5003;55849;48.482;2.332;2023-03-01T07:30:43;13.00;12.50;9.50
68841;PMS5003;55849;48.482;2.332;2023-03-01T07:33:46;15.00;15.00;9.00
68841;PMS5003;55849;48.482;2.332;2023-03-01T07:36:48;11.50;10.00;6.00
68841;PMS5003;55849;48.482;2.332;2023-03-01T07:39:49;10.50;6.75;3.75
68841;PMS5003;55849;48.482;2.332;2023-03-01T07:42:54;11.50;9.50;6.50
68841;PMS5003;55849;48.482;2.332;2023-03-01T07:45:57;12.00;11.50;7.00
68841;PMS5003;55849;48.482;2.332;2023-03-01T07:49:01;16.50;15.00;11.50
68841;PMS5003;55849;48.482;2.332;2023-03-01T07:52:04;18.75;14.50;6.00
68841;PMS5003;55849;48.482;2.332;2023-03-01T07:55:06;23.25;18.00;9.75
68841;PMS5003;55849;48.482;2.332;2023-03-01T07:58:08;17.00;14.50;9.00
68841;PMS5003;55849;48.482;2.332;2023-03-01T08:01:10;14.50;12.50;9.00
68841;PMS5003;55849;48.482;2.332;2023-03-01T11:27:16;30.00;20.75;13.00
68841;PMS5003;55849;48.482;2.332;2023-03-01T11:30:21;21.50;17.00;12.00
68841;PMS5003;55849;48.482;2.332;2023-03-01T11:33:30;22.50;20.50;13.00
68841;PMS5003;55849;48.482;2.332;2023-03-01T11:36:39;16.00;16.00;12.75
68841;PMS5003;55849;48.482;2.332;2023-03-01T11:39:47;16.00;16.00;11.50
68841;PMS5003;55849;48.482;2.332;2023-03-01T11:43:00;18.75;18.75;10.00
68841;PMS5003;55849;48.482;2.332;2023-03-01T11:46:24;27.50;21.50;12.25
68841;PMS5003;55849;48.482;2.332;2023-03-01T11:49:46;17.00;16.00;12.25
68841;PMS5003;55849;48.482;2.332;2023-03-01T11:53:12;22.75;18.25;10.00
68841;PMS5003;55849;48.482;2.332;2023-03-01T11:56:31;18.50;15.25;10.25
68841;PMS5003;55849;48.482;2.332;2023-03-01T11:59:43;33.50;27.75;16.00
68841;PMS5003;55849;48.482;2.332;2023-03-01T12:03:01;27.50;18.50;12.50
68841;PMS5003;55849;48.482;2.332;2023-03-01T12:09:56;24.25;19.25;13.50
68841;PMS5003;55849;48.482;2.332;2023-03-01T12:13:13;18.75;16.50;10.50
68841;PMS5003;55849;48.482;2.332;2023-03-01T12:16:32;23.25;19.25;13.00
68841;PMS5003;55849;48.482;2.332;2023-03-01T12:20:01;29.75;23.25;14.50
68841;PMS5003;55849;48.482;2.332;2023-03-01T12:26:52;27.25;22.75;13.00
68841;PMS5003;55849;48.482;2.332;2023-03-01T12:30:15;21.50;18.00;12.75
68841;PMS5003;55849;48.482;2.332;2023-03-01T12:33:29;20.25;17.25;12.50
68841;PMS5003;55849;48.482;2.332;2023-03-01T12:36:40;21.00;19.00;11.75
68841;PMS5003;55849;48.482;2.332;2023-03-01T12:39:57;20.00;19.75;14.00
68841;PMS5003;55849;48.482;2.332;2023-03-01T12:43:21;20.75;18.00;12.00
68841;PMS5003;55849;48.482;2.332;2023-03-01T12:46:39;27.50;23.00;15.00
68841;PMS5003;55849;48.482;2.332;2023-03-01T12:50:12;18.50;15.25;11.00
68841;PMS5003;55849;48.482;2.332;2023-03-01T12:53:22;23.00;19.50;13.50
68841;PMS5003;55849;48.482;2.332;2023-03-01T12:56:26;33.00;23.50;14.50
68841;PMS5003;55849;48.482;2.332;2023-03-01T12:59:31;21.75;17.50;13.00
68841;PMS5003;55849;48.482;2.332;2023-03-01T13:02:41;25.50;22.00;16.00
68841;PMS5003;55849;48.482;2.332;2023-03-01T13:05:55;31.25;21.00;15.75
68841;PMS5003;55849;48.482;2.332;2023-03-01T13:09:06;31.50;22.25;13.50
68841;PMS5003;55849;48.482;2.332;2023-03-01T13:15:52;31.25;21.25;14.50
68841;PMS5003;55849;48.482;2.332;2023-03-01T13:19:05;31.00;21.50;15.00
68841;PMS5003;55849;48.482;2.332;2023-03-01T13:25:31;29.00;23.25;15.50
68841;PMS5003;55849;48.482;2.332;2023-03-01T13:32:01;27.00;26.50;16.00
68841;PMS5003;55849;48.482;2.332;2023-03-01T13:35:07;32.00;26.00;16.25
68841;PMS5003;55849;48.482;2.332;2023-03-01T13:38:47;48.00;36.75;23.50
68841;PMS5003;55849;48.482;2.332;2023-03-01T13:41:57;44.25;34.50;22.75
68841;PMS5003;55849;48.482;2.332;2023-03-01T13:45:00;24.50;24.50;16.00
68841;PMS5003;55849;48.482;2.332;2023-03-01T13:48:02;35.25;28.50;19.50
68841;PMS5003;55849;48.482;2.332;2023-03-01T13:51:10;35.75;30.75;20.75
68841;PMS5003;55849;48.482;2.332;2023-03-01T13:54:15;40.00;34.25;23.25
68841;PMS5003;55849;48.482;2.332;2023-03-01T13:57:24;40.50;32.50;22.00
68841;PMS5003;55849;48.482;2.332;2023-03-01T14:00:31;44.00;34.75;23.50
68841;PMS5003;55849;48.482;2.332;2023-03-01T14:03:40;36.75;32.75;21.50
68841;PMS5003;55849;48.482;2.332;2023-03-01T14:06:42;40.25;34.00;22.00
68841;PMS5003;55849;48.482;2.332;2023-03-01T14:09:46;33.75;32.50;22.25
68841;PMS5003;55849;48.482;2.332;2023-03-01T14:12:52;39.25;32.50;22.00
68841;PMS5003;55849;48.482;2.332;2023-03-01T14:16:03;43.75;34.75;23.50
68841;PMS5003;55849;48.482;2.332;2023-03-01T14:19:18;38.00;32.25;22.00
68841;PMS5003;55849;48.482;2.332;2023-03-01T14:22:27;42.50;34.75;22.00
68841;PMS5003;55849;48.482;2.332;2023-03-01T14:25:33;43.75;34.00;22.75
68841;PMS5003;55849;48.482;2.332;2023-03-01T14:28:36;40.25;33.00;22.75
68841;PMS5003;55849;48.482;2.332;2023-03-01T14:31:39;45.25;35.50;22.75
68841;PMS5003;55849;48.482;2.332;2023-03-01T14:34:42;33.75;30.00;20.00
68841;PMS5003;55849;48.482;2.332;2023-03-01T14:37:45;40.50;33.50;22.00
68841;PMS5003;55849;48.482;2.332;2023-03-01T14:40:51;36.50;32.25;21.50
68841;PMS5003;55849;48.482;2.332;2023-03-01T14:43:58;41.75;34.00;22.25
68841;PMS5003;55849;48.482;2.332;2023-03-01T14:47:02;43.75;35.25;21.25
68841;PMS5003;55849;48.482;2.332;2023-03-01T14:50:07;37.25;32.50;19.75
68841;PMS5003;55849;48.482;2.332;2023-03-01T14:53:15;53.00;42.75;27.50
68841;PMS5003;55849;48.482;2.332;2023-03-01T14:56:21;62.75;50.25;32.75
68841;PMS5003;55849;48.482;2.332;2023-03-01T14:59:22;82.50;71.00;53.25
68841;PMS5003;55849;48.482;2.332;2023-03-01T15:02:25;33.75;31.50;20.75
68841;PMS5003;55849;48.482;2.332;2023-03-01T15:05:29;43.75;35.50;22.50
68841;PMS5003;55849;48.482;2.332;2023-03-01T15:08:32;42.75;36.00;24.00
68841;PMS5003;55849;48.482;2.332;2023-03-01T15:11:36;40.25;35.50;23.25
68841;PMS5003;55849;48.482;2.332;2023-03-01T15:14:41;38.25;32.25;21.75
68841;PMS5003;55849;48.482;2.332;2023-03-01T15:17:44;44.75;37.25;25.50
68841;PMS5003;55849;48.482;2.332;2023-03-01T15:20:45;35.25;33.00;21.75
68841;PMS5003;55849;48.482;2.332;2023-03-01T15:23:49;44.25;36.50;24.50
68841;PMS5003;55849;48.482;2.332;2023-03-01T15:26:55;35.75;29.00;22.50
68841;PMS5003;55849;48.482;2.332;2023-03-01T15:30:02;37.75;35.75;24.75
68841;PMS5003;55849;48.482;2.332;2023-03-01T15:33:18;36.75;34.25;23.50
68841;PMS5003;55849;48.482;2.332;2023-03-01T15:36:29;44.75;35.25;23.50
68841;PMS5003;55849;48.482;2.332;2023-03-01T15:39:38;38.50;36.25;24.75
68841;PMS5003;55849;48.482;2.332;2023-03-01T15:42:45;44.00;36.75;24.25
68841;PMS5003;55849;48.482;2.332;2023-03-01T15:45:46;41.50;36.25;24.50
68841;PMS5003;55849;48.482;2.332;2023-03-01T15:48:58;39.25;35.00;22.75
68841;PMS5003;55849;48.482;2.332;2023-03-01T15:52:02;32.75;30.25;18.75
68841;PMS5003;55849;48.482;2.332;2023-03-01T15:55:05;39.00;34.25;23.00
68841;PMS5003;55849;48.482;2.332;2023-03-01T15:58:18;39.25;35.75;23.00
68841;PMS5003;55849;48.482;2.332;2023-03-01T16:01:21;36.50;34.00;21.50
68841;PMS5003;55849;48.482;2.332;2023-03-01T16:04:23;38.75;32.00;21.50
68841;PMS5003;55849;48.482;2.332;2023-03-01T16:07:24;42.50;31.75;21.50
68841;PMS5003;55849;48.482;2.332;2023-03-01T16:10:28;37.25;32.25;20.75
68841;PMS5003;55849;48.482;2.332;2023-03-01T16:13:31;41.50;34.50;23.50
68841;PMS5003;55849;48.482;2.332;2023-03-01T16:16:33;42.00;33.25;22.00
68841;PMS5003;55849;48.482;2.332;2023-03-01T16:19:35;37.50;34.25;23.00
68841;PMS5003;55849;48.482;2.332;2023-03-01T16:22:37;32.50;29.75;20.00
68841;PMS5003;55849;48.482;2.332;2023-03-01T16:25:39;38.75;31.50;21.00
68841;PMS5003;55849;48.482;2.332;2023-03-01T16:28:42;42.00;32.00;20.50
68841;PMS5003;55849;48.482;2.332;2023-03-01T16:31:44;35.00;32.00;21.50
68841;PMS5003;55849;48.482;2.332;2023-03-01T16:34:46;33.75;32.25;20.00
68841;PMS5003;55849;48.482;2.332;2023-03-01T16:37:49;42.00;32.00;20.00
68841;PMS5003;55849;48.482;2.332;2023-03-01T16:40:52;33.75;30.00;20.00
68841;PMS5003;55849;48.482;2.332;2023-03-01T16:43:55;34.00;31.25;21.25
68841;PMS5003;55849;48.482;2.332;2023-03-01T16:46:57;37.75;33.25;21.00
68841;PMS5003;55849;48.482;2.332;2023-03-01T16:49:58;38.75;32.50;21.25
68841;PMS5003;55849;48.482;2.332;2023-03-01T16:53:00;33.25;29.00;19.50
68841;PMS5003;55849;48.482;2.332;2023-03-01T16:56:02;33.50;28.50;20.00
68841;PMS5003;55849;48.482;2.332;2023-03-01T16:59:07;41.00;33.00;20.25
68841;PMS5003;55849;48.482;2.332;2023-03-01T17:02:09;36.00;32.25;21.25
68841;PMS5003;55849;48.482;2.332;2023-03-01T17:05:12;40.50;34.25;22.25
68841;PMS5003;55849;48.482;2.332;2023-03-01T17:08:14;48.00;35.00;22.50
68841;PMS5003;55849;48.482;2.332;2023-03-01T17:11:17;31.75;31.75;21.00
68841;PMS5003;55849;48.482;2.332;2023-03-01T17:14:21;36.75;32.00;19.50
68841;PMS5003;55849;48.482;2.332;2023-03-01T17:17:23;37.00;32.00;19.25
68841;PMS5003;55849;48.482;2.332;2023-03-01T17:20:24;40.25;34.00;22.00
68841;PMS5003;55849;48.482;2.332;2023-03-01T17:23:26;34.75;32.50;22.50
68841;PMS5003;55849;48.482;2.332;2023-03-01T17:26:29;37.50;30.75;18.75
68841;PMS5003;55849;48.482;2.332;2023-03-01T17:29:32;19.00;15.25;8.00
68841;PMS5003;55849;48.482;2.332;2023-03-01T17:32:34;36.00;25.00;17.00
68841;PMS5003;55849;48.482;2.332;2023-03-01T17:35:36;38.75;32.00;19.75
68841;PMS5003;55849;48.482;2.332;2023-03-01T17:38:38;23.00;22.00;13.00
68841;PMS5003;55849;48.482;2.332;2023-03-01T17:41:39;28.25;26.00;17.75
68841;PMS5003;55849;48.482;2.332;2023-03-01T17:44:42;20.25;15.75;12.50
68841;PMS5003;55849;48.482;2.332;2023-03-01T17:47:44;30.00;22.50;15.00
68841;PMS5003;55849;48.482;2.332;2023-03-01T17:50:45;21.75;21.00;14.50
68841;PMS5003;55849;48.482;2.332;2023-03-01T17:53:47;23.00;18.75;11.50
68841;PMS5003;55849;48.482;2.332;2023-03-01T17:56:49;28.25;23.25;16.00
68841;PMS5003;55849;48.482;2.332;2023-03-01T17:59:52;23.25;18.00;15.00
68841;PMS5003;55849;48.482;2.332;2023-03-01T18:02:53;26.50;23.50;15.00
68841;PMS5003;55849;48.482;2.332;2023-03-01T18:05:55;28.00;24.50;16.00
68841;PMS5003;55849;48.482;2.332;2023-03-01T18:08:56;23.75;23.50;14.00
68841;PMS5003;55849;48.482;2.332;2023-03-01T18:11:58;25.00;24.00;16.00
68841;PMS5003;55849;48.482;2.332;2023-03-01T18:15:01;22.25;21.00;14.00
68841;PMS5003;55849;48.482;2.332;2023-03-01T18:18:03;23.50;20.25;14.50
68841;PMS5003;55849;48.482;2.332;2023-03-01T18:21:05;25.75;22.50;13.75
68841;PMS5003;55849;48.482;2.332;2023-03-01T18:24:07;27.00;20.00;13.50
68841;PMS5003;55849;48.482;2.332;2023-03-01T18:27:08;23.75;18.75;13.50
68841;PMS5003;55849;48.482;2.332;2023-03-01T18:30:12;27.75;18.75;12.50
68841;PMS5003;55849;48.482;2.332;2023-03-01T18:33:15;26.00;20.00;13.50
68841;PMS5003;55849;48.482;2.332;2023-03-01T18:36:17;34.25;21.75;15.50
68841;PMS5003;55849;48.482;2.332;2023-03-01T18:39:21;18.00;18.00;12.75
68841;PMS5003;55849;48.482;2.332;2023-03-01T18:42:23;23.25;20.25;14.50
68841;PMS5003;55849;48.482;2.332;2023-03-01T18:45:26;22.75;20.50;15.25
68841;PMS5003;55849;48.482;2.332;2023-03-01T18:48:27;24.75;19.00;11.50
68841;PMS5003;55849;48.482;2.332;2023-03-01T18:51:29;23.75;17.00;13.00
68841;PMS5003;55849;48.482;2.332;2023-03-01T18:54:31;27.75;21.25;15.25
68841;PMS5003;55849;48.482;2.332;2023-03-01T18:57:34;19.50;17.00;12.50
68841;PMS5003;55849;48.482;2.332;2023-03-01T19:00:37;28.50;24.50;16.00
68841;PMS5003;55849;48.482;2.332;2023-03-01T19:03:39;21.75;20.00;15.50
68841;PMS5003;55849;48.482;2.332;2023-03-01T19:06:41;22.00;18.25;13.50
68841;PMS5003;55849;48.482;2.332;2023-03-01T19:09:42;28.25;24.50;17.00
68841;PMS5003;55849;48.482;2.332;2023-03-01T19:12:44;36.50;28.00;19.00
68841;PMS5003;55849;48.482;2.332;2023-03-01T19:15:47;16.75;15.50;12.25
68841;PMS5003;55849;48.482;2.332;2023-03-01T19:18:49;33.50;27.25;18.50
68841;PMS5003;55849;48.482;2.332;2023-03-01T19:21:50;32.00;26.25;18.75
68841;PMS5003;55849;48.482;2.332;2023-03-01T19:24:52;30.25;26.00;16.00
68841;PMS5003;55849;48.482;2.332;2023-03-01T19:27:53;30.75;27.50;18.75
68841;PMS5003;55849;48.482;2.332;2023-03-01T19:31:00;26.25;23.50;15.25
68841;PMS5003;55849;48.482;2.332;2023-03-01T19:34:02;27.25;22.75;16.00
68841;PMS5003;55849;48.482;2.332;2023-03-01T19:37:04;29.50;27.75;15.00
68841;PMS5003;55849;48.482;2.332;2023-03-01T19:40:07;33.50;32.50;19.00
68841;PMS5003;55849;48.482;2.332;2023-03-01T19:43:09;40.25;31.00;18.00
68841;PMS5003;55849;48.482;2.332;2023-03-01T19:46:12;34.25;29.50;20.50
68841;PMS5003;55849;48.482;2.332;2023-03-01T19:49:15;26.00;26.00;18.25
68841;PMS5003;55849;48.482;2.332;2023-03-01T19:52:16;28.00;23.00;14.75
68841;PMS5003;55849;48.482;2.332;2023-03-01T19:55:18;30.00;24.50;16.50
68841;PMS5003;55849;48.482;2.332;2023-03-01T19:58:19;35.00;30.75;20.00
68841;PMS5003;55849;48.482;2.332;2023-03-01T20:01:22;38.25;30.00;21.75
68841;PMS5003;55849;48.482;2.332;2023-03-01T20:04:24;34.25;32.00;18.00
68841;PMS5003;55849;48.482;2.332;2023-03-01T20:07:26;32.00;23.25;17.00
68841;PMS5003;55849;48.482;2.332;2023-03-01T20:10:27;30.75;22.00;17.00
68841;PMS5003;55849;48.482;2.332;2023-03-01T20:13:30;68.75;53.00;33.00
68841;PMS5003;55849;48.482;2.332;2023-03-01T20:16:33;160.00;143.25;79.00
68841;PMS5003;55849;48.482;2.332;2023-03-01T20:19:35;111.25;86.50;49.50
68841;PMS5003;55849;48.482;2.332;2023-03-01T20:22:36;93.00;66.25;40.00
68841;PMS5003;55849;48.482;2.332;2023-03-01T20:25:38;83.00;63.00;42.00
68841;PMS5003;55849;48.482;2.332;2023-03-01T20:28:40;81.25;61.25;40.00
68841;PMS5003;55849;48.482;2.332;2023-03-01T20:31:43;69.00;53.75;34.00
68841;PMS5003;55849;48.482;2.332;2023-03-01T20:34:45;56.00;48.50;30.50
68841;PMS5003;55849;48.482;2.332;2023-03-01T20:37:46;32.75;28.25;21.00
68841;PMS5003;55849;48.482;2.332;2023-03-01T20:40:55;36.50;29.75;20.75
68841;PMS5003;55849;48.482;2.332;2023-03-01T20:43:57;32.50;27.25;20.50
68841;PMS5003;55849;48.482;2.332;2023-03-01T20:47:00;28.00;28.00;21.00
68841;PMS5003;55849;48.482;2.332;2023-03-01T20:50:02;21.50;19.00;15.50
68841;PMS5003;55849;48.482;2.332;2023-03-01T20:53:04;25.50;22.00;15.25
68841;PMS5003;55849;48.482;2.332;2023-03-01T20:56:06;23.50;18.75;11.50
68841;PMS5003;55849;48.482;2.332;2023-03-01T20:59:10;31.25;29.00;16.50
68841;PMS5003;55849;48.482;2.332;2023-03-01T21:02:14;26.00;26.00;19.75
68841;PMS5003;55849;48.482;2.332;2023-03-01T21:05:15;29.25;25.00;16.25
68841;PMS5003;55849;48.482;2.332;2023-03-01T21:08:18;27.50;27.00;19.00
68841;PMS5003;55849;48.482;2.332;2023-03-01T21:11:20;31.00;27.00;19.00